Hohenkirchen-Siegertsbrunn, Germany

8:17 AM CEST on April 25, 2017 (GMT +0200)
Am Ganter | | Change Station

Elev 1925 ft 48.02 °N, 11.72 °E | Updated 2 minutes ago

Mostly Cloudy
Mostly Cloudy
51.1 °F
Feels Like 51.1 °F
N
0.6
Wind Variable Wind from SSE
Gusts 3.7 mph

Today
High -- | Low -- °F
--% Chance of Precip.
Yesterday
High -- | Low -- °F
Precip. -- in
Pressure 29.74 in
Visibility 6.2 miles
Clouds Few 3000 ft
Scattered Clouds 5000 ft
Mostly Cloudy 6000 ft
Dew Point 38 °F
Humidity 61%
Rainfall 0.00 in
Snow Depth Not available.
6:05 AM 8:17 PM
Waning Crescent, 2% visible
METAR EDDM 250550Z 22007KT 9999 -SHRA FEW030TCU SCT050 BKN060 11/06 Q1007 NOSIG
Pressure 29.74 in
Visibility 6.2 miles
Clouds Few 3000 ft
Scattered Clouds 5000 ft
Mostly Cloudy 6000 ft
Dew Point 38 °F
Humidity 61%
Rainfall 0.00 in
Snow Depth Not available.
6:05 AM 8:17 PM
Waning Crescent, 2% visible
METAR EDDM 250550Z 22007KT 9999 -SHRA FEW030TCU SCT050 BKN060 11/06 Q1007 NOSIG

Get Severe Weather Alerts

Thanks for signing up!

Be on the lookout for a verification email in your inbox.

You'll start receiving the daily forecast at 8 AM.

×

10-Day Weather Forecast

×

Almanac

Astronomy

Apr. 25, 2017 Rise Set
Actual Time
Civil Twilight
Nautical Twilight
Astronomical Twilight
Moon
Length of Visible Light
Length of Day
Tomorrow will be .
, % of the Moon is Illuminated

Today's Extremes

Country Highs Country Lows

Community

WunderPhotos

WunderBlog® & News

Nearby

Air Quality

  Air Quality AQ Index Pollutant
Not available.

Snow Depth

Station Depth Elevation

Earthquake Activity

City Distance Mag. Time & Date
Minimum magnitude displayed is 2.5.

Coastal Water Temperatures

Place Temperature

Stations

Nearby Weather Stations

Station Location Temp. Windchill Dew Point Humidity Wind Precip. Elev Updated Type